createdAt,value
2018-12-18T00:00:52.748Z,6.90
2018-12-18T00:03:20.157Z,6.93
2018-12-18T00:05:47.629Z,7.07
2018-12-18T00:08:15.161Z,6.53
2018-12-18T00:10:46.457Z,7.10
2018-12-18T00:13:13.909Z,7.67
2018-12-18T00:15:41.343Z,7.70
2018-12-18T00:18:08.797Z,7.57
2018-12-18T00:20:36.223Z,8.13
2018-12-18T00:23:03.717Z,9.70
2018-12-18T00:25:31.188Z,8.80
2018-12-18T00:27:58.600Z,9.20
2018-12-18T00:30:26.118Z,8.83
2018-12-18T00:32:53.562Z,9.20
2018-12-18T00:35:21.028Z,8.70
2018-12-18T00:37:48.502Z,9.00
2018-12-18T00:40:15.953Z,8.67
2018-12-18T00:42:43.368Z,9.50
2018-12-18T00:45:10.902Z,9.07
2018-12-18T00:47:38.324Z,8.77
2018-12-18T00:50:05.809Z,6.97
2018-12-18T00:52:33.286Z,9.27
2018-12-18T00:55:00.733Z,9.20
2018-12-18T00:57:28.140Z,9.50
2018-12-18T00:59:55.585Z,11.50
2018-12-18T01:02:23.081Z,10.70
2018-12-18T01:04:50.990Z,10.07
2018-12-18T01:07:18.734Z,11.33
2018-12-18T01:09:46.218Z,11.00
2018-12-18T01:12:13.680Z,11.63
2018-12-18T01:14:41.108Z,12.60
2018-12-18T01:17:08.552Z,11.47
2018-12-18T01:19:36.010Z,12.20
2018-12-18T01:22:03.548Z,13.03
2018-12-18T01:24:31.001Z,12.53
2018-12-18T01:26:58.479Z,13.03
2018-12-18T01:29:26.020Z,12.10
2018-12-18T01:31:53.504Z,12.60
2018-12-18T01:34:20.965Z,12.40
2018-12-18T01:36:48.515Z,12.40
2018-12-18T01:39:15.979Z,12.43
2018-12-18T01:41:43.477Z,10.37
2018-12-18T01:44:10.981Z,12.20
2018-12-18T01:46:38.429Z,11.10
2018-12-18T01:49:05.900Z,11.53
2018-12-18T01:51:33.372Z,10.50
2018-12-18T01:54:00.807Z,6.90
2018-12-18T01:56:28.220Z,10.47
2018-12-18T01:58:55.913Z,10.43
2018-12-18T02:01:23.375Z,9.70
2018-12-18T02:03:50.844Z,10.53
2018-12-18T02:06:18.306Z,10.50
2018-12-18T02:08:45.825Z,9.43
2018-12-18T02:11:13.260Z,10.57
2018-12-18T02:13:40.710Z,11.93
2018-12-18T02:16:09.749Z,11.63
2018-12-18T02:18:37.648Z,11.37
2018-12-18T02:21:05.118Z,18.33
2018-12-18T02:23:32.573Z,11.63
2018-12-18T02:26:00.059Z,11.10
2018-12-18T02:28:27.609Z,12.03
2018-12-18T02:30:55.046Z,12.33
2018-12-18T02:33:22.593Z,13.03
2018-12-18T02:35:50.029Z,13.20
2018-12-18T02:38:17.490Z,14.93
2018-12-18T02:40:45.111Z,15.13
2018-12-18T02:43:12.563Z,15.57
2018-12-18T02:45:40.051Z,14.87
2018-12-18T02:48:07.485Z,16.97
2018-12-18T02:50:34.959Z,15.23
2018-12-18T02:53:02.399Z,14.50
2018-12-18T02:55:29.933Z,16.93
2018-12-18T02:57:57.700Z,17.17
2018-12-18T03:00:25.173Z,15.80
2018-12-18T03:02:52.713Z,15.33
2018-12-18T03:05:20.246Z,16.33
2018-12-18T03:07:47.739Z,16.93
2018-12-18T03:10:15.145Z,15.03
2018-12-18T03:12:42.614Z,16.57
2018-12-18T03:15:10.095Z,16.73
2018-12-18T03:17:37.508Z,15.77
2018-12-18T03:20:06.749Z,15.43
2018-12-18T03:22:34.184Z,16.90
2018-12-18T03:25:01.659Z,17.10
2018-12-18T03:27:29.204Z,21.67
2018-12-18T03:29:56.681Z,14.70
2018-12-18T03:32:25.957Z,15.70
2018-12-18T03:34:53.538Z,15.57
2018-12-18T03:37:21.030Z,15.77
2018-12-18T03:39:48.484Z,15.10
2018-12-18T03:42:15.948Z,15.37
2018-12-18T03:44:43.389Z,14.77
2018-12-18T03:47:10.931Z,15.53
2018-12-18T03:49:38.436Z,14.70
2018-12-18T03:52:05.846Z,14.83
2018-12-18T03:54:33.308Z,14.03
2018-12-18T03:57:00.905Z,11.93
2018-12-18T03:59:28.409Z,11.07
2018-12-18T04:01:55.848Z,12.30
2018-12-18T04:04:23.346Z,14.17
2018-12-18T04:06:50.842Z,14.43
2018-12-18T04:09:18.313Z,14.80
2018-12-18T04:14:50.806Z,12.93
2018-12-18T04:17:18.297Z,15.57
2018-12-18T04:19:45.838Z,14.63
2018-12-18T04:22:13.273Z,15.23
2018-12-18T04:24:40.760Z,14.93
2018-12-18T04:27:08.221Z,17.23
2018-12-18T04:29:35.685Z,17.03
2018-12-18T04:32:03.143Z,16.93
2018-12-18T04:34:30.589Z,15.83
2018-12-18T04:36:58.029Z,16.83
2018-12-18T04:39:25.520Z,17.63
2018-12-18T04:41:52.995Z,17.17
2018-12-18T04:44:20.423Z,16.97
2018-12-18T04:46:47.897Z,17.67
2018-12-18T04:49:15.316Z,17.87
2018-12-18T04:51:42.744Z,17.97
2018-12-18T04:54:10.294Z,18.03
2018-12-18T04:56:37.716Z,17.47
2018-12-18T04:59:05.167Z,18.40
2018-12-18T05:01:32.655Z,17.97
2018-12-18T05:04:00.087Z,18.03
2018-12-18T05:06:27.545Z,17.23
2018-12-18T05:08:55.029Z,16.83
2018-12-18T05:11:22.471Z,17.50
2018-12-18T05:13:49.958Z,16.83
2018-12-18T05:16:17.422Z,17.17
2018-12-18T05:18:44.896Z,17.07
2018-12-18T05:21:12.366Z,17.10
2018-12-18T05:23:39.850Z,16.87
2018-12-18T05:26:07.367Z,16.53
2018-12-18T05:28:34.812Z,16.40
2018-12-18T05:31:02.570Z,15.00
2018-12-18T05:33:30.011Z,16.03
2018-12-18T05:35:57.426Z,16.53
2018-12-18T05:38:24.897Z,17.07
2018-12-18T05:40:52.348Z,16.97
2018-12-18T05:43:19.857Z,18.73
2018-12-18T05:45:47.372Z,18.97
2018-12-18T05:48:14.857Z,17.13
2018-12-18T05:50:42.319Z,17.33
2018-12-18T05:53:09.838Z,17.23
2018-12-18T05:55:37.290Z,15.90
2018-12-18T05:58:04.745Z,17.50
2018-12-18T06:00:32.218Z,17.57
2018-12-18T06:02:59.713Z,16.27
2018-12-18T06:05:27.190Z,16.80
2018-12-18T06:07:54.750Z,16.80
2018-12-18T06:10:22.284Z,17.13
2018-12-18T06:12:49.865Z,16.13
2018-12-18T06:15:17.316Z,16.70
2018-12-18T06:17:44.771Z,15.77
2018-12-18T06:20:12.297Z,15.57
2018-12-18T06:22:39.776Z,15.17
2018-12-18T06:25:07.304Z,17.30
2018-12-18T06:27:34.761Z,15.07
2018-12-18T06:30:02.275Z,15.13
2018-12-18T06:32:29.988Z,15.97
2018-12-18T06:34:57.449Z,14.43
2018-12-18T06:37:24.935Z,12.67
2018-12-18T06:39:52.431Z,14.70
2018-12-18T06:42:19.885Z,13.13
2018-12-18T06:44:47.362Z,14.60
2018-12-18T06:47:14.817Z,10.90
2018-12-18T06:49:42.628Z,14.47
2018-12-18T06:52:10.129Z,11.93
2018-12-18T06:54:37.549Z,21.57
2018-12-18T06:57:05.022Z,14.20
2018-12-18T06:59:32.506Z,9.07
2018-12-18T07:02:00.054Z,9.23
2018-12-18T07:04:27.569Z,8.73
2018-12-18T07:06:55.075Z,9.47
2018-12-18T07:09:22.559Z,9.90
2018-12-18T07:11:50.058Z,9.67
2018-12-18T07:14:17.555Z,11.93
2018-12-18T07:16:45.020Z,14.90
2018-12-18T07:19:12.446Z,13.90
2018-12-18T07:21:39.998Z,13.93
2018-12-18T07:24:13.845Z,14.17
2018-12-18T07:26:36.863Z,13.33
2018-12-18T07:29:04.671Z,11.90
2018-12-18T07:31:32.138Z,11.47
2018-12-18T07:34:00.014Z,12.00
2018-12-18T07:36:27.445Z,15.97
2018-12-18T07:38:54.899Z,14.27
2018-12-18T07:41:22.352Z,11.73
2018-12-18T07:43:49.851Z,12.97
2018-12-18T07:46:17.394Z,11.50
2018-12-18T07:48:44.816Z,12.13
2018-12-18T07:51:12.334Z,11.37
2018-12-18T07:53:39.784Z,10.40
2018-12-18T07:56:07.250Z,10.40
2018-12-18T07:58:34.765Z,8.87
2018-12-18T08:01:02.256Z,8.10
2018-12-18T08:03:29.676Z,8.70
2018-12-18T08:05:57.202Z,9.63
2018-12-18T08:08:24.650Z,9.53
2018-12-18T08:10:52.092Z,10.03
2018-12-18T08:13:19.582Z,11.87
2018-12-18T08:15:47.020Z,12.70
2018-12-18T08:18:14.477Z,12.53
2018-12-18T08:20:41.956Z,12.43
2018-12-18T08:23:09.372Z,13.90
2018-12-18T08:25:36.878Z,13.67
2018-12-18T08:28:04.399Z,13.97
2018-12-18T08:30:31.840Z,14.60
2018-12-18T08:32:59.301Z,13.90
2018-12-18T08:35:26.805Z,12.97
2018-12-18T08:37:54.264Z,14.03
2018-12-18T08:40:21.699Z,12.53
2018-12-18T08:42:49.196Z,12.70
2018-12-18T08:45:16.669Z,12.53
2018-12-18T08:47:44.089Z,12.97
2018-12-18T08:50:11.583Z,13.17
2018-12-18T08:52:39.106Z,13.93
2018-12-18T08:55:06.721Z,15.00
2018-12-18T08:57:34.358Z,14.43
2018-12-18T09:00:01.953Z,12.90
2018-12-18T09:02:29.730Z,13.27
2018-12-18T09:04:57.236Z,15.60
2018-12-18T09:07:24.700Z,14.60
2018-12-18T09:09:52.135Z,21.57
2018-12-18T09:12:19.588Z,15.37
2018-12-18T09:14:52.892Z,16.87
2018-12-18T09:17:22.524Z,15.23
2018-12-18T09:19:49.959Z,15.17
2018-12-18T09:22:17.447Z,14.53
2018-12-18T09:24:44.973Z,13.27
2018-12-18T09:27:12.416Z,13.10
2018-12-18T09:29:39.864Z,12.70
2018-12-18T09:32:07.337Z,11.10
2018-12-18T09:34:34.821Z,11.10
2018-12-18T09:37:02.261Z,10.10
2018-12-18T09:39:35.496Z,8.70
2018-12-18T09:45:11.456Z,6.50
2018-12-18T09:47:38.898Z,6.37
2018-12-18T09:50:06.394Z,7.63
2018-12-18T09:52:33.849Z,6.77
2018-12-18T09:55:01.633Z,7.33
2018-12-18T09:57:34.694Z,6.53
2018-12-18T10:00:02.217Z,6.80
2018-12-18T10:02:29.636Z,6.10
2018-12-18T10:04:57.171Z,6.60
2018-12-18T10:07:24.614Z,7.10
2018-12-18T10:09:52.044Z,6.87
2018-12-18T10:12:21.591Z,6.57
2018-12-18T10:14:48.994Z,7.67
2018-12-18T10:17:16.511Z,6.67
2018-12-18T10:19:43.982Z,5.23
2018-12-18T10:22:11.408Z,6.53
2018-12-18T10:24:38.844Z,5.90
2018-12-18T10:27:06.311Z,5.63
2018-12-18T10:29:33.750Z,5.37
2018-12-18T10:32:01.199Z,5.17
2018-12-18T10:34:28.697Z,5.17
2018-12-18T10:36:56.102Z,5.70
2018-12-18T10:39:23.539Z,6.00
2018-12-18T10:41:50.968Z,6.00
2018-12-18T10:44:18.404Z,5.93
2018-12-18T10:46:45.839Z,6.50
2018-12-18T10:49:13.288Z,6.67
2018-12-18T10:51:40.734Z,7.07
2018-12-18T10:54:08.205Z,8.13
2018-12-18T10:56:35.727Z,8.93
2018-12-18T10:59:03.232Z,9.03
2018-12-18T11:01:36.340Z,8.47
2018-12-18T11:04:03.879Z,8.50
2018-12-18T11:06:31.356Z,10.17
2018-12-18T11:08:58.816Z,10.43
2018-12-18T11:11:26.237Z,10.13
2018-12-18T11:13:53.681Z,9.97
2018-12-18T11:16:21.171Z,10.43
2018-12-18T11:18:48.585Z,10.90
2018-12-18T11:21:16.012Z,10.50
2018-12-18T11:23:43.507Z,11.67
2018-12-18T11:26:10.978Z,11.00
2018-12-18T11:28:38.633Z,9.20
2018-12-18T11:31:06.189Z,11.20
2018-12-18T11:33:33.584Z,10.97
2018-12-18T11:36:01.003Z,9.83
2018-12-18T11:38:28.912Z,11.47
2018-12-18T11:40:56.324Z,7.97
2018-12-18T11:43:24.485Z,10.23
2018-12-18T11:45:51.995Z,20.43
2018-12-18T11:48:19.445Z,17.60
2018-12-18T11:50:46.937Z,20.70
2018-12-18T11:53:14.588Z,16.83
2018-12-18T11:55:42.042Z,7.83
2018-12-18T11:58:09.510Z,7.67
2018-12-18T12:00:37.461Z,7.53
2018-12-18T12:03:04.872Z,8.60
2018-12-18T12:05:32.288Z,7.70
2018-12-18T12:07:59.783Z,7.47
2018-12-18T12:10:27.213Z,8.33
2018-12-18T12:12:54.681Z,8.63
2018-12-18T12:15:22.109Z,8.67
2018-12-18T12:17:49.710Z,8.87
2018-12-18T12:20:17.140Z,8.50
2018-12-18T12:22:44.609Z,8.43
2018-12-18T12:25:12.022Z,8.30
2018-12-18T12:27:45.316Z,8.67
2018-12-18T12:30:12.836Z,7.33
2018-12-18T12:32:40.285Z,8.63
2018-12-18T12:35:07.763Z,8.83
2018-12-18T12:37:35.176Z,8.07
2018-12-18T12:40:03.001Z,9.80
2018-12-18T12:42:30.463Z,9.50
2018-12-18T12:44:57.878Z,9.03
2018-12-18T12:47:25.372Z,12.23
2018-12-18T12:49:52.800Z,10.00
2018-12-18T12:52:20.338Z,9.10
2018-12-18T12:54:47.780Z,9.23
2018-12-18T12:57:15.301Z,8.00
2018-12-18T12:59:42.788Z,7.57
2018-12-18T13:02:10.248Z,7.60
2018-12-18T13:04:37.758Z,8.10
2018-12-18T13:07:05.252Z,8.50
2018-12-18T13:09:32.724Z,9.47
2018-12-18T13:12:00.173Z,8.30
2018-12-18T13:14:27.577Z,7.77
2018-12-18T13:16:55.030Z,8.30
2018-12-18T13:19:22.473Z,8.23
2018-12-18T13:21:49.918Z,7.97
2018-12-18T13:24:17.386Z,8.30
2018-12-18T13:26:44.837Z,8.70
2018-12-18T13:29:12.272Z,8.80
2018-12-18T13:31:39.712Z,8.00
2018-12-18T13:34:07.198Z,8.63
2018-12-18T13:36:34.600Z,9.47
2018-12-18T13:39:02.048Z,8.73
2018-12-18T13:41:29.540Z,9.03
2018-12-18T13:43:57.038Z,9.03
2018-12-18T13:46:24.445Z,8.90
2018-12-18T13:48:51.954Z,24.77
2018-12-18T13:51:19.409Z,9.20
2018-12-18T13:53:46.927Z,6.60
2018-12-18T13:56:14.488Z,6.60
2018-12-18T13:58:41.984Z,10.10
2018-12-18T14:01:09.429Z,20.47
2018-12-18T14:03:36.896Z,10.73
2018-12-18T14:06:04.402Z,8.47
2018-12-18T14:08:31.867Z,7.60
2018-12-18T14:10:59.341Z,7.70
2018-12-18T14:13:26.756Z,7.53
2018-12-18T14:15:54.213Z,7.87
2018-12-18T14:18:21.725Z,7.87
2018-12-18T14:20:49.144Z,7.97
2018-12-18T14:23:16.644Z,8.57
2018-12-18T14:25:44.208Z,7.60
2018-12-18T14:28:11.616Z,7.83
2018-12-18T14:30:39.479Z,8.60
2018-12-18T14:33:06.978Z,8.17
2018-12-18T14:35:34.808Z,8.27
2018-12-18T14:38:02.273Z,9.30
2018-12-18T14:40:29.728Z,8.30
2018-12-18T14:42:57.194Z,8.47
2018-12-18T14:45:24.632Z,8.00
2018-12-18T14:47:52.088Z,8.10
2018-12-18T14:50:19.689Z,8.90
2018-12-18T14:52:47.156Z,8.13
2018-12-18T14:55:14.731Z,8.87
2018-12-18T14:57:42.194Z,8.03
2018-12-18T15:00:09.739Z,9.10
2018-12-18T15:02:37.222Z,8.97
2018-12-18T15:05:04.859Z,8.90
2018-12-18T15:07:32.320Z,8.50
2018-12-18T15:09:59.769Z,8.83
2018-12-18T15:12:27.198Z,9.10
2018-12-18T15:14:54.650Z,9.00
2018-12-18T15:17:22.100Z,8.37
2018-12-18T15:19:49.521Z,8.90
2018-12-18T15:22:16.960Z,8.63
2018-12-18T15:24:44.501Z,8.77
2018-12-18T15:27:11.958Z,8.80
2018-12-18T15:29:39.428Z,8.83
2018-12-18T15:32:07.227Z,9.43
2018-12-18T15:34:34.651Z,7.93
2018-12-18T15:37:02.119Z,9.37
2018-12-18T15:39:29.590Z,8.87
2018-12-18T15:41:57.030Z,9.43
2018-12-18T15:44:24.481Z,9.03
2018-12-18T15:46:51.990Z,10.33
2018-12-18T15:49:19.480Z,9.73
2018-12-18T15:51:46.970Z,9.37
2018-12-18T15:54:14.584Z,10.53
2018-12-18T15:56:42.028Z,9.97
2018-12-18T15:59:09.469Z,9.43
2018-12-18T16:01:36.995Z,9.10
2018-12-18T16:04:04.405Z,9.77
2018-12-18T16:06:31.924Z,9.90
2018-12-18T16:08:59.421Z,10.53
2018-12-18T16:11:26.885Z,9.03
2018-12-18T16:13:54.335Z,10.03
2018-12-18T16:16:21.863Z,9.43
2018-12-18T16:18:49.284Z,10.40
2018-12-18T16:21:16.763Z,9.83
2018-12-18T16:23:44.329Z,10.23
2018-12-18T16:26:11.797Z,10.67
2018-12-18T16:28:39.299Z,10.00
2018-12-18T16:31:06.768Z,10.33
2018-12-18T16:33:34.251Z,10.87
2018-12-18T16:36:01.705Z,11.47
2018-12-18T16:38:29.162Z,12.63
2018-12-18T16:40:56.641Z,12.20
2018-12-18T16:43:24.094Z,12.57
2018-12-18T16:45:51.549Z,11.90
2018-12-18T16:48:19.002Z,13.43
2018-12-18T16:50:46.456Z,12.87
2018-12-18T16:53:13.903Z,12.40
2018-12-18T16:55:41.365Z,13.13
2018-12-18T16:58:08.800Z,12.20
2018-12-18T17:00:36.288Z,12.70
2018-12-18T17:03:03.792Z,14.30
2018-12-18T17:05:31.209Z,13.23
2018-12-18T17:07:58.713Z,12.07
2018-12-18T17:10:26.152Z,12.37
2018-12-18T17:12:56.123Z,13.37
2018-12-18T17:15:23.780Z,12.43
2018-12-18T17:17:51.197Z,12.63
2018-12-18T17:20:18.715Z,11.30
2018-12-18T17:22:46.176Z,13.73
2018-12-18T17:25:13.831Z,11.30
2018-12-18T17:27:41.292Z,11.63
2018-12-18T17:30:09.116Z,11.53
2018-12-18T17:32:36.550Z,11.17
2018-12-18T17:35:04.275Z,11.47
2018-12-18T17:37:36.211Z,10.33
2018-12-18T17:40:01.427Z,10.30
2018-12-18T17:42:28.844Z,9.67
2018-12-18T17:44:56.362Z,8.97
2018-12-18T17:47:23.789Z,8.70
2018-12-18T17:49:51.283Z,9.13
2018-12-18T17:52:18.788Z,9.13
2018-12-18T17:54:46.216Z,8.53
2018-12-18T17:57:13.665Z,8.27
2018-12-18T17:59:41.146Z,7.17
2018-12-18T18:02:08.953Z,7.53
2018-12-18T18:04:36.397Z,6.60
2018-12-18T18:07:03.965Z,7.67
2018-12-18T18:09:31.417Z,7.40
2018-12-18T18:11:58.865Z,6.97
2018-12-18T18:14:26.405Z,6.03
2018-12-18T18:16:53.862Z,6.67
2018-12-18T18:19:21.300Z,6.53
2018-12-18T18:21:48.784Z,6.97
2018-12-18T18:24:16.237Z,6.87
2018-12-18T18:26:43.730Z,5.83
2018-12-18T18:29:11.453Z,6.63
2018-12-18T18:31:38.946Z,6.77
2018-12-18T18:34:06.401Z,7.03
2018-12-18T18:36:33.898Z,5.93
2018-12-18T18:39:01.381Z,5.43
2018-12-18T18:41:28.870Z,5.90
2018-12-18T18:43:56.344Z,6.20
2018-12-18T18:46:23.849Z,5.77
2018-12-18T18:48:51.440Z,6.87
2018-12-18T18:51:18.915Z,6.77
2018-12-18T18:53:46.348Z,6.87
2018-12-18T18:56:13.986Z,7.10
2018-12-18T18:58:41.486Z,7.40
2018-12-18T19:01:08.945Z,7.37
2018-12-18T19:03:36.429Z,7.47
2018-12-18T19:06:04.007Z,7.43
2018-12-18T19:08:31.520Z,8.27
2018-12-18T19:10:58.972Z,7.33
2018-12-18T19:13:26.448Z,8.07
2018-12-18T19:15:53.942Z,8.00
2018-12-18T19:18:21.406Z,7.47
2018-12-18T19:20:49.367Z,6.97
2018-12-18T19:23:16.804Z,6.93
2018-12-18T19:25:44.275Z,6.97
2018-12-18T19:28:11.755Z,6.67
2018-12-18T19:30:39.168Z,6.97
2018-12-18T19:33:06.644Z,7.17
2018-12-18T19:35:34.108Z,6.47
2018-12-18T19:38:03.277Z,6.07
2018-12-18T19:40:31.018Z,7.20
2018-12-18T19:42:58.533Z,6.50
2018-12-18T19:45:25.984Z,6.77
2018-12-18T19:47:53.412Z,6.43
2018-12-18T19:50:20.879Z,7.03
2018-12-18T19:52:48.334Z,7.00
2018-12-18T19:55:15.812Z,6.70
2018-12-18T19:57:43.269Z,7.03
2018-12-18T20:00:11.017Z,7.10
2018-12-18T20:02:38.439Z,7.30
2018-12-18T20:05:06.102Z,8.07
2018-12-18T20:07:33.605Z,8.50
2018-12-18T20:10:01.031Z,8.07
2018-12-18T20:12:28.492Z,8.03
2018-12-18T20:14:55.940Z,8.47
2018-12-18T20:17:23.428Z,7.87
2018-12-18T20:19:50.966Z,8.20
2018-12-18T20:22:18.393Z,8.40
2018-12-18T20:24:45.837Z,9.33
2018-12-18T20:27:13.314Z,9.73
2018-12-18T20:29:40.835Z,8.50
2018-12-18T20:32:08.280Z,9.37
2018-12-18T20:34:35.725Z,9.93
2018-12-18T20:37:03.193Z,10.60
2018-12-18T20:39:30.633Z,10.97
2018-12-18T20:41:58.172Z,11.47
2018-12-18T20:44:25.689Z,10.87
2018-12-18T20:46:53.176Z,11.33
2018-12-18T20:49:20.707Z,12.37
2018-12-18T20:51:48.175Z,10.77
2018-12-18T20:54:15.659Z,10.67
2018-12-18T20:56:43.558Z,11.07
2018-12-18T20:59:11.075Z,11.17
2018-12-18T21:01:38.565Z,11.80
2018-12-18T21:04:06.142Z,13.30
2018-12-18T21:06:33.677Z,16.30
2018-12-18T21:09:01.106Z,13.57
2018-12-18T21:11:28.623Z,13.77
2018-12-18T21:13:56.096Z,14.57
2018-12-18T21:16:23.604Z,12.43
2018-12-18T21:18:51.122Z,13.63
2018-12-18T21:21:18.774Z,11.80
2018-12-18T21:23:46.270Z,12.80
2018-12-18T21:26:13.768Z,12.17
2018-12-18T21:28:41.223Z,12.80
2018-12-18T21:31:08.714Z,12.90
2018-12-18T21:33:36.245Z,12.23
2018-12-18T21:36:03.795Z,15.17
2018-12-18T21:38:31.273Z,13.63
2018-12-18T21:40:58.814Z,13.90
2018-12-18T21:43:26.382Z,18.00
2018-12-18T21:45:53.924Z,15.47
2018-12-18T21:48:21.422Z,43.83
2018-12-18T21:50:48.871Z,18.07
2018-12-18T21:53:16.365Z,14.57
2018-12-18T21:55:43.906Z,13.23
2018-12-18T21:58:11.437Z,13.87
2018-12-18T22:00:38.914Z,13.70
2018-12-18T22:03:06.645Z,15.53
2018-12-18T22:05:34.158Z,14.73
2018-12-18T22:08:01.673Z,14.00
2018-12-18T22:10:29.180Z,14.83
2018-12-18T22:12:56.641Z,19.53
2018-12-18T22:15:24.246Z,15.57
2018-12-18T22:17:51.749Z,14.00
2018-12-18T22:20:19.339Z,13.87
2018-12-18T22:22:46.864Z,27.60
2018-12-18T22:25:14.404Z,19.53
2018-12-18T22:27:43.022Z,17.50
2018-12-18T22:30:11.577Z,13.93
2018-12-18T22:32:39.114Z,14.27
2018-12-18T22:35:06.687Z,13.50
2018-12-18T22:37:34.167Z,12.27
2018-12-18T22:40:01.753Z,12.60
2018-12-18T22:42:29.307Z,10.87
2018-12-18T22:44:56.846Z,11.67
2018-12-18T22:47:24.302Z,12.23
2018-12-18T22:49:51.815Z,13.57
2018-12-18T22:52:19.296Z,13.00
2018-12-18T22:54:46.898Z,12.83
2018-12-18T22:57:14.541Z,13.30
2018-12-18T22:59:41.997Z,12.90
2018-12-18T23:02:15.484Z,14.40
2018-12-18T23:04:43.386Z,51.77
2018-12-18T23:07:10.848Z,14.20
2018-12-18T23:09:38.356Z,13.97
2018-12-18T23:12:05.959Z,13.43
2018-12-18T23:14:33.541Z,12.77
2018-12-18T23:17:01.015Z,11.30
2018-12-18T23:19:28.605Z,11.17
2018-12-18T23:21:56.052Z,12.40
2018-12-18T23:24:23.551Z,12.13
2018-12-18T23:26:51.012Z,12.37
2018-12-18T23:29:18.744Z,12.00
2018-12-18T23:31:46.253Z,12.97
2018-12-18T23:34:13.722Z,13.17
2018-12-18T23:36:41.196Z,11.50
2018-12-18T23:39:08.951Z,13.47
2018-12-18T23:41:36.725Z,12.40
2018-12-18T23:44:04.398Z,12.20
2018-12-18T23:46:31.877Z,13.43
2018-12-18T23:48:59.365Z,12.50
2018-12-18T23:51:27.001Z,12.80
2018-12-18T23:53:54.575Z,12.80
2018-12-18T23:56:22.031Z,13.17
2018-12-18T23:58:49.579Z,13.77
